Time;durP1;ratioP1;P1;durP2;ratioP2;P2;SDS_P1;SDS_P2;PMS_P1;PMS_P2;Temp;Humidity;BMP_temperature;BMP_pressure;BME280_temperature;BME280_humidity;BME280_pressure;Samples;Min_cycle;Max_cycle;Signal;HPM_P1;HPM_P2
2021/03/17 00:00:44;;;;;;;23.02;14.50;;;6.20;1.00;;;;;;5099663;28;20535;-68
2021/03/17 00:03:09;;;;;;;29.40;14.80;;;6.30;1.00;;;;;;5096140;28;20192;-68
2021/03/17 00:05:36;;;;;;;21.40;14.17;;;6.20;33.50;;;;;;5095811;28;20694;-67
2021/03/17 00:08:03;;;;;;;21.27;14.02;;;6.20;93.70;;;;;;5095470;28;20804;-68
2021/03/17 00:10:32;;;;;;;21.70;12.82;;;6.30;67.40;;;;;;5095702;28;20620;-68
2021/03/17 00:12:59;;;;;;;23.52;14.38;;;6.30;1.00;;;;;;5095151;28;20263;-68
2021/03/17 00:15:36;;;;;;;22.45;13.77;;;6.30;99.90;;;;;;5095182;28;20198;-68
2021/03/17 00:18:02;;;;;;;21.48;12.65;;;6.20;99.90;;;;;;5095338;28;20521;-68
2021/03/17 00:20:29;;;;;;;20.85;13.30;;;6.00;99.90;;;;;;5094936;28;20263;-68
2021/03/17 00:22:56;;;;;;;19.35;12.18;;;6.10;1.00;;;;;;5094979;28;20191;-68
2021/03/17 00:25:32;;;;;;;22.08;13.55;;;6.20;1.00;;;;;;5095128;28;20235;-68
2021/03/17 00:28:01;;;;;;;20.88;13.05;;;6.20;1.00;;;;;;5095001;28;20230;-68
2021/03/17 00:30:31;;;;;;;18.52;11.95;;;6.10;1.00;;;;;;5094808;28;20632;-68
2021/03/17 00:32:59;;;;;;;16.15;12.30;;;6.10;1.00;;;;;;5094740;28;20659;-68
2021/03/17 00:35:25;;;;;;;19.85;12.18;;;6.20;99.90;;;;;;5094975;28;20171;-68
2021/03/17 00:37:51;;;;;;;21.33;12.68;;;6.00;1.00;;;;;;5094618;28;20167;-68
2021/03/17 00:40:17;;;;;;;19.40;12.20;;;5.80;1.00;;;;;;5094639;28;20179;-68
2021/03/17 00:42:43;;;;;;;20.30;12.67;;;5.70;1.00;;;;;;5094852;28;20270;-68
2021/03/17 00:45:09;;;;;;;28.93;13.10;;;6.00;63.90;;;;;;5094633;28;20455;-67
2021/03/17 00:47:35;;;;;;;21.23;13.50;;;6.00;99.90;;;;;;5095017;28;20762;-67
2021/03/17 00:50:00;;;;;;;16.80;10.73;;;6.10;99.90;;;;;;5094885;28;20228;-68
2021/03/17 00:52:26;;;;;;;21.50;12.37;;;6.10;15.80;;;;;;5094610;28;20237;-67
2021/03/17 00:54:52;;;;;;;21.77;14.20;;;5.90;1.00;;;;;;5094485;28;20222;-67
2021/03/17 00:57:17;;;;;;;16.23;12.13;;;5.90;1.00;;;;;;5094384;28;20636;-68
2021/03/17 00:59:43;;;;;;;20.07;11.77;;;6.00;35.40;;;;;;5094382;28;20385;-67
2021/03/17 01:02:08;;;;;;;25.03;13.73;;;5.90;1.00;;;;;;5094131;28;20191;-67
2021/03/17 01:04:34;;;;;;;21.40;13.70;;;6.00;99.90;;;;;;5094359;28;20167;-67
2021/03/17 01:07:00;;;;;;;25.03;13.33;;;6.10;91.50;;;;;;5094148;28;20317;-67
2021/03/17 01:09:25;;;;;;;19.73;13.90;;;6.10;1.00;;;;;;5093998;28;20830;-67
2021/03/17 01:11:51;;;;;;;27.90;13.97;;;5.90;1.00;;;;;;5094109;28;20601;-67
2021/03/17 01:14:16;;;;;;;20.33;13.40;;;5.90;99.90;;;;;;5094016;28;20164;-67
2021/03/17 01:16:42;;;;;;;17.93;12.03;;;5.70;1.00;;;;;;5093956;28;20172;-66
2021/03/17 01:19:07;;;;;;;21.30;13.77;;;5.50;1.00;;;;;;5093939;28;20171;-68
2021/03/17 01:21:33;;;;;;;21.83;13.10;;;5.40;1.00;;;;;;5093844;28;20617;-67
2021/03/17 01:23:59;;;;;;;18.97;13.47;;;5.40;99.90;;;;;;5093879;28;20254;-68
2021/03/17 01:26:24;;;;;;;20.25;13.32;;;5.60;1.00;;;;;;5094064;28;20186;-67
2021/03/17 01:28:50;;;;;;;21.13;13.87;;;5.70;50.60;;;;;;5094011;28;20230;-68
2021/03/17 01:31:16;;;;;;;25.70;13.17;;;5.60;1.00;;;;;;5093665;28;20217;-68
2021/03/17 01:33:41;;;;;;;23.33;13.87;;;5.50;1.00;;;;;;5093758;28;20286;-68
2021/03/17 01:36:07;;;;;;;22.67;14.37;;;5.60;1.00;;;;;;5093663;28;20168;-68
2021/03/17 01:38:33;;;;;;;22.60;14.47;;;5.70;29.20;;;;;;5093669;28;20199;-67
2021/03/17 01:40:59;;;;;;;20.83;14.57;;;5.40;94.80;;;;;;5093811;28;20171;-68
2021/03/17 01:43:25;;;;;;;19.13;13.77;;;5.80;99.90;;;;;;5093417;28;20195;-68
2021/03/17 01:45:51;;;;;;;23.10;13.40;;;5.90;1.00;;;;;;5093430;28;20401;-68
2021/03/17 01:48:17;;;;;;;24.30;14.55;;;5.90;1.00;;;;;;5093272;28;20195;-68
2021/03/17 01:50:49;;;;;;;25.95;16.30;;;5.60;1.00;;;;;;5093418;28;20159;-66
2021/03/17 01:53:19;;;;;;;19.38;13.75;;;5.70;1.00;;;;;;5093263;28;20195;-68
2021/03/17 01:55:45;;;;;;;21.88;14.43;;;5.90;99.90;;;;;;5093246;28;20290;-67
2021/03/17 01:58:11;;;;;;;21.73;15.33;;;5.80;99.90;;;;;;5093128;28;20607;-67
2021/03/17 02:00:39;;;;;;;20.60;13.30;;;5.90;1.00;;;;;;5093412;28;20171;-67
2021/03/17 02:03:06;;;;;;;24.15;14.75;;;6.00;1.00;;;;;;5093051;28;20195;-67
2021/03/17 02:05:35;;;;;;;21.30;15.45;;;6.00;1.00;;;;;;5092740;28;20160;-67
2021/03/17 02:08:04;;;;;;;22.40;13.57;;;5.90;99.90;;;;;;5092910;28;20600;-67
2021/03/17 02:10:30;;;;;;;24.40;15.80;;;5.70;99.90;;;;;;5093079;28;20254;-67
2021/03/17 02:13:30;;;;;;;20.05;14.40;;;5.80;3.70;;;;;;5092997;28;20556;-68
2021/03/17 02:16:21;;;;;;;21.20;13.55;;;5.70;99.90;;;;;;5093071;28;20579;-68
2021/03/17 02:19:20;;;;;;;21.80;15.38;;;5.80;99.90;;;;;;5093098;28;20183;-68
2021/03/17 02:22:08;;;;;;;19.75;13.85;;;5.80;2.80;;;;;;5093188;28;20191;-67
2021/03/17 02:25:04;;;;;;;23.38;14.90;;;5.90;99.90;;;;;;5093184;28;20190;-67
2021/03/17 02:27:43;;;;;;;22.92;13.35;;;5.90;1.00;;;;;;5092909;28;20250;-68
2021/03/17 02:30:24;;;;;;;20.75;15.18;;;5.80;99.90;;;;;;5092893;28;20245;-67
2021/03/17 02:33:26;;;;;;;23.95;15.57;;;6.00;1.00;;;;;;5092773;28;20179;-67
2021/03/17 02:35:59;;;;;;;18.83;13.88;;;6.00;99.90;;;;;;5092834;28;20161;-67
2021/03/17 02:38:27;;;;;;;23.13;16.15;;;5.70;99.90;;;;;;5093093;28;20155;-68
2021/03/17 02:40:56;;;;;;;23.10;15.30;;;5.70;23.30;;;;;;5093046;28;20160;-68
2021/03/17 02:43:33;;;;;;;20.55;14.05;;;5.50;99.90;;;;;;5092697;28;20211;-68
2021/03/17 02:46:04;;;;;;;26.52;15.43;;;5.50;97.00;;;;;;5093004;28;20160;-68
2021/03/17 02:48:41;;;;;;;26.77;16.52;;;5.30;1.00;;;;;;5092644;28;20215;-67
2021/03/17 02:51:13;;;;;;;24.83;14.68;;;5.60;99.90;;;;;;5093055;28;20156;-68
2021/03/17 02:53:42;;;;;;;26.00;15.32;;;5.50;63.80;;;;;;5092941;28;20158;-68
2021/03/17 02:56:10;;;;;;;25.30;17.35;;;5.40;99.90;;;;;;5092796;28;20167;-68
2021/03/17 02:58:38;;;;;;;22.27;14.85;;;5.60;1.00;;;;;;5093000;28;20178;-68
2021/03/17 03:01:05;;;;;;;18.70;14.45;;;5.50;1.00;;;;;;5092350;28;20258;-68
2021/03/17 03:03:32;;;;;;;21.02;15.27;;;5.50;1.00;;;;;;5092301;28;20243;-68
2021/03/17 03:05:59;;;;;;;22.02;15.18;;;5.70;1.00;;;;;;5092305;28;20164;-67
2021/03/17 03:08:26;;;;;;;20.58;15.52;;;5.70;99.90;;;;;;5092304;28;20187;-67
2021/03/17 03:10:53;;;;;;;21.05;14.32;;;5.80;99.90;;;;;;5092565;28;20564;-68
2021/03/17 03:13:20;;;;;;;25.23;15.88;;;5.60;99.90;;;;;;5092304;28;20183;-67
2021/03/17 03:15:46;;;;;;;45.20;15.10;;;5.60;14.20;;;;;;5092461;28;20186;-67
2021/03/17 03:18:13;;;;;;;20.48;14.32;;;5.70;99.90;;;;;;5096177;28;20213;-67
2021/03/17 03:20:39;;;;;;;24.35;15.98;;;5.70;99.90;;;;;;5096093;28;20692;-67
2021/03/17 03:23:05;;;;;;;26.40;16.25;;;5.50;1.00;;;;;;5095774;28;20252;-67
2021/03/17 03:25:31;;;;;;;29.07;14.40;;;5.70;1.00;;;;;;5095921;28;20171;-67
2021/03/17 03:27:58;;;;;;;27.48;15.45;;;5.90;41.50;;;;;;5095722;28;20566;-67
2021/03/17 03:30:26;;;;;;;21.38;14.02;;;5.70;99.90;;;;;;5095764;28;20163;-67
2021/03/17 03:32:53;;;;;;;21.80;15.07;;;5.50;99.90;;;;;;5095524;28;20191;-67
2021/03/17 03:35:20;;;;;;;21.38;14.68;;;5.40;97.10;;;;;;5095764;28;20167;-67
2021/03/17 03:37:46;;;;;;;21.15;15.65;;;5.20;1.00;;;;;;5095693;28;20175;-67
2021/03/17 03:40:18;;;;;;;26.08;14.02;;;5.20;99.90;;;;;;5095882;28;20269;-67
2021/03/17 03:42:44;;;;;;;24.85;16.65;;;5.20;1.00;;;;;;5095387;28;20204;-67
2021/03/17 03:45:13;;;;;;;22.30;15.80;;;5.00;99.90;;;;;;5095489;28;20694;-67
2021/03/17 03:47:40;;;;;;;24.02;14.63;;;5.30;1.00;;;;;;5095436;28;20195;-68
2021/03/17 03:50:07;;;;;;;22.63;15.77;;;5.30;1.00;;;;;;5095448;28;20164;-68
2021/03/17 03:52:40;;;;;;;19.10;14.90;;;5.10;99.90;;;;;;5095318;28;20187;-67
2021/03/17 03:55:18;;;;;;;22.75;15.10;;;5.10;1.00;;;;;;5095289;28;20562;-67
2021/03/17 03:57:51;;;;;;;20.23;15.27;;;4.90;1.00;;;;;;5095275;28;20152;-67
2021/03/17 04:00:21;;;;;;;21.27;14.93;;;5.10;32.30;;;;;;5095169;28;20183;-68
2021/03/17 04:02:50;;;;;;;21.63;14.90;;;5.30;19.60;;;;;;5095130;28;20183;-68
2021/03/17 04:05:19;;;;;;;19.27;13.50;;;5.40;1.00;;;;;;5095016;28;20250;-68
2021/03/17 04:07:47;;;;;;;15.50;10.35;;;5.40;99.90;;;;;;5094910;28;20563;-68
2021/03/17 04:10:14;;;;;;;15.80;11.40;;;5.20;1.00;;;;;;5094905;28;20217;-67
2021/03/17 04:12:43;;;;;;;15.45;10.75;;;5.40;99.90;;;;;;5094827;28;20537;-67
2021/03/17 04:15:12;;;;;;;12.95;10.38;;;5.50;99.90;;;;;;5094894;28;20174;-68
2021/03/17 04:17:46;;;;;;;15.80;10.57;;;5.60;18.40;;;;;;5094966;28;20262;-68
2021/03/17 04:20:16;;;;;;;16.50;11.27;;;5.30;99.90;;;;;;5094844;28;20156;-68
2021/03/17 04:22:44;;;;;;;16.50;8.95;;;5.40;99.90;;;;;;5094741;28;20625;-68
2021/03/17 04:25:12;;;;;;;14.98;9.45;;;5.50;1.00;;;;;;5094798;28;20214;-68
2021/03/17 04:27:42;;;;;;;14.48;10.50;;;5.50;1.00;;;;;;5094319;28;20192;-67
2021/03/17 04:30:09;;;;;;;11.68;8.98;;;5.60;99.90;;;;;;5094929;28;20164;-67
2021/03/17 04:32:37;;;;;;;15.43;10.00;;;5.60;99.90;;;;;;5093768;28;20195;-67
2021/03/17 04:35:04;;;;;;;17.17;9.93;;;5.60;99.90;;;;;;5095703;28;20155;-67
2021/03/17 04:37:31;;;;;;;12.82;8.13;;;5.20;99.90;;;;;;5094829;28;20163;-68
2021/03/17 04:39:58;;;;;;;9.85;6.45;;;5.20;1.00;;;;;;5094283;28;20163;-67
2021/03/17 04:42:24;;;;;;;7.97;6.38;;;5.10;99.90;;;;;;5092979;28;20195;-68
2021/03/17 04:44:50;;;;;;;8.30;5.80;;;5.20;1.00;;;;;;5094515;28;20178;-68
2021/03/17 04:47:17;;;;;;;12.30;6.90;;;4.90;99.90;;;;;;5094479;28;20242;-67
2021/03/17 04:49:45;;;;;;;9.55;6.53;;;5.30;23.00;;;;;;5094263;28;20186;-67
2021/03/17 04:52:14;;;;;;;9.65;6.60;;;5.30;1.00;;;;;;5094019;28;20191;-68
2021/03/17 04:54:40;;;;;;;7.90;5.20;;;5.40;1.00;;;;;;5094375;28;20164;-67
2021/03/17 04:57:13;;;;;;;7.95;6.72;;;5.00;99.90;;;;;;5094122;28;20171;-68
2021/03/17 04:59:41;;;;;;;10.70;6.30;;;4.80;99.90;;;;;;5094051;28;20152;-68
2021/03/17 05:02:10;;;;;;;10.80;6.10;;;5.00;99.90;;;;;;5093976;28;20537;-67
2021/03/17 05:04:37;;;;;;;7.82;5.88;;;4.70;99.90;;;;;;5094016;28;20163;-68
2021/03/17 05:07:03;;;;;;;8.23;6.38;;;5.00;1.00;;;;;;5093866;28;20724;-67
2021/03/17 05:09:28;;;;;;;8.98;6.50;;;5.10;1.00;;;;;;5094066;28;20248;-67
2021/03/17 05:11:56;;;;;;;7.33;5.47;;;4.80;1.00;;;;;;5093712;28;20270;-68
2021/03/17 05:14:23;;;;;;;9.10;6.25;;;4.80;1.00;;;;;;5093797;28;20170;-67
2021/03/17 05:16:51;;;;;;;5.88;4.70;;;4.50;1.00;;;;;;5093634;28;20554;-68
2021/03/17 05:19:19;;;;;;;7.80;5.95;;;4.60;99.90;;;;;;5093671;28;20675;-67
2021/03/17 05:21:46;;;;;;;9.00;6.20;;;5.00;99.90;;;;;;5093877;28;20264;-67
2021/03/17 05:24:13;;;;;;;8.38;6.35;;;5.20;1.00;;;;;;5093762;28;20175;-68
2021/03/17 05:26:39;;;;;;;10.05;7.60;;;5.30;99.90;;;;;;5093579;28;20167;-68
2021/03/17 05:29:06;;;;;;;12.70;8.00;;;5.20;1.00;;;;;;5093433;28;20191;-67
2021/03/17 05:31:33;;;;;;;9.95;7.05;;;5.00;1.00;;;;;;5093345;28;20164;-67
2021/03/17 05:33:59;;;;;;;12.20;8.27;;;4.70;1.00;;;;;;5093252;28;20163;-68
2021/03/17 05:36:25;;;;;;;11.23;7.80;;;4.90;1.00;;;;;;5093414;28;20532;-67
2021/03/17 05:38:53;;;;;;;10.00;7.50;;;5.10;99.90;;;;;;5092632;28;20197;-67
2021/03/17 05:41:19;;;;;;;13.30;8.75;;;5.20;1.00;;;;;;5093452;28;20167;-67
2021/03/17 05:43:47;;;;;;;11.55;8.07;;;4.70;1.00;;;;;;5093208;28;20189;-67
2021/03/17 05:46:13;;;;;;;13.10;8.68;;;4.60;1.00;;;;;;5093026;28;20172;-67
2021/03/17 05:48:41;;;;;;;12.93;9.25;;;4.70;1.00;;;;;;5093006;28;20187;-67
2021/03/17 05:51:08;;;;;;;14.77;8.45;;;4.90;99.90;;;;;;5093119;28;20238;-67
2021/03/17 05:53:34;;;;;;;12.30;8.85;;;4.80;99.90;;;;;;5092980;28;20179;-68
2021/03/17 05:56:01;;;;;;;11.63;8.63;;;4.70;1.00;;;;;;5093119;28;20216;-68
2021/03/17 05:58:28;;;;;;;11.70;9.05;;;4.70;50.10;;;;;;5093114;28;20697;-68
2021/03/17 06:00:53;;;;;;;10.75;8.15;;;4.90;1.00;;;;;;5093105;28;20218;-67
2021/03/17 06:03:20;;;;;;;11.80;8.07;;;5.00;99.90;;;;;;5093183;28;20262;-67
2021/03/17 06:05:46;;;;;;;11.40;8.68;;;4.60;99.90;;;;;;5092947;28;20652;-68
2021/03/17 06:08:18;;;;;;;11.80;9.27;;;4.60;1.00;;;;;;5092750;28;20203;-68
2021/03/17 06:10:44;;;;;;;14.20;8.73;;;4.80;1.00;;;;;;5093023;28;20182;-68
2021/03/17 06:13:12;;;;;;;13.68;9.45;;;4.90;99.90;;;;;;5092979;28;20294;-67
2021/03/17 06:15:39;;;;;;;12.77;9.00;;;4.80;99.90;;;;;;5092947;28;20202;-68
2021/03/17 06:18:15;;;;;;;13.65;10.10;;;4.70;1.00;;;;;;5092856;28;20183;-67
2021/03/17 06:20:43;;;;;;;11.65;9.30;;;4.90;38.80;;;;;;5092879;28;20159;-68
2021/03/17 06:23:09;;;;;;;11.82;9.80;;;4.70;49.40;;;;;;5091180;28;20199;-67
2021/03/17 06:25:34;;;;;;;13.57;9.40;;;4.70;1.00;;;;;;5092637;28;20168;-68
2021/03/17 06:28:02;;;;;;;14.70;9.20;;;4.80;1.00;;;;;;5092896;28;20451;-68
2021/03/17 06:30:28;;;;;;;20.55;11.30;;;4.90;99.90;;;;;;5092717;28;20168;-68
2021/03/17 06:32:53;;;;;;;15.10;11.53;;;4.90;99.90;;;;;;5092423;28;20209;-68
2021/03/17 06:35:24;;;;;;;16.90;11.70;;;5.10;1.00;;;;;;5092833;28;20184;-68
2021/03/17 06:37:51;;;;;;;15.85;11.20;;;5.20;1.00;;;;;;5092520;28;20205;-70
2021/03/17 06:40:21;;;;;;;16.75;12.15;;;4.70;99.90;;;;;;5092673;28;20170;-68
2021/03/17 06:42:47;;;;;;;14.40;11.05;;;5.00;99.90;;;;;;5092326;28;20316;-68
2021/03/17 06:45:14;;;;;;;15.60;11.40;;;5.20;1.00;;;;;;5092543;28;20175;-68
2021/03/17 06:47:39;;;;;;;16.67;11.57;;;4.90;1.00;;;;;;5092416;28;20185;-68
2021/03/17 06:50:12;;;;;;;14.90;12.00;;;5.10;1.00;;;;;;5093014;28;20167;-68
2021/03/17 06:52:40;;;;;;;16.55;11.18;;;4.70;99.90;;;;;;5094920;28;20686;-68
2021/03/17 06:55:15;;;;;;;13.95;10.80;;;4.80;13.60;;;;;;5096665;28;20171;-68
2021/03/17 06:57:52;;;;;;;13.93;11.10;;;5.00;99.90;;;;;;5096508;28;20175;-68
2021/03/17 07:00:28;;;;;;;14.23;10.77;;;5.20;99.90;;;;;;5095198;28;20163;-69
2021/03/17 07:03:05;;;;;;;12.10;9.75;;;5.00;99.90;;;;;;5096059;28;20203;-68
2021/03/17 07:05:40;;;;;;;11.82;9.73;;;4.90;99.90;;;;;;5095882;28;20159;-69
2021/03/17 07:08:08;;;;;;;14.52;10.20;;;4.90;1.00;;;;;;5095974;28;20202;-68
2021/03/17 07:10:43;;;;;;;15.60;11.25;;;4.80;99.90;;;;;;5095921;28;20159;-69
2021/03/17 07:13:12;;;;;;;15.20;11.73;;;4.90;99.90;;;;;;5096007;28;20190;-69
2021/03/17 07:15:38;;;;;;;19.70;12.40;;;5.10;1.00;;;;;;5096057;28;20216;-69
2021/03/17 07:18:16;;;;;;;16.67;11.82;;;5.30;99.90;;;;;;5095987;28;20251;-69
2021/03/17 07:20:48;;;;;;;16.75;12.23;;;5.40;99.90;;;;;;5096036;28;20601;-69
2021/03/17 07:23:35;;;;;;;16.05;12.57;;;5.10;94.10;;;;;;5095896;28;20183;-69
2021/03/17 07:26:17;;;;;;;18.60;13.80;;;5.00;10.70;;;;;;5095820;28;20179;-69
2021/03/17 07:28:57;;;;;;;16.35;12.50;;;5.00;99.90;;;;;;5095627;28;20183;-69
2021/03/17 07:31:35;;;;;;;18.13;11.80;;;5.30;99.90;;;;;;5095919;28;20155;-69
2021/03/17 07:34:14;;;;;;;17.65;13.02;;;5.00;1.00;;;;;;5096090;28;20154;-67
2021/03/17 07:36:55;;;;;;;22.35;12.60;;;5.40;99.90;;;;;;5095658;28;20237;-67
2021/03/17 07:39:30;;;;;;;17.27;12.45;;;5.70;1.00;;;;;;5095469;28;20175;-68
2021/03/17 07:41:59;;;;;;;18.17;11.93;;;5.80;99.90;;;;;;5095941;28;20187;-68
2021/03/17 07:44:26;;;;;;;14.50;11.95;;;5.80;99.90;;;;;;5095353;28;20164;-67
2021/03/17 07:46:54;;;;;;;16.05;11.02;;;5.80;99.90;;;;;;5095202;28;20202;-68
2021/03/17 07:49:21;;;;;;;15.77;10.55;;;5.90;1.00;;;;;;5095359;28;20195;-67
2021/03/17 07:51:50;;;;;;;18.73;11.85;;;5.90;1.00;;;;;;5095167;28;20240;-68
2021/03/17 07:54:30;;;;;;;13.10;10.20;;;6.00;1.00;;;;;;5095080;28;20163;-67
2021/03/17 07:56:58;;;;;;;13.45;10.25;;;5.80;99.90;;;;;;5095864;28;20212;-68
2021/03/17 07:59:25;;;;;;;14.90;11.32;;;5.70;1.00;;;;;;5095219;28;20582;-68
2021/03/17 08:01:53;;;;;;;15.05;10.48;;;5.50;1.00;;;;;;5094268;28;20183;-68
2021/03/17 08:04:24;;;;;;;17.50;11.75;;;5.80;1.00;;;;;;5095333;28;20171;-66
2021/03/17 08:06:50;;;;;;;12.75;9.60;;;5.80;1.00;;;;;;5095145;28;20191;-68
2021/03/17 08:09:16;;;;;;;11.40;9.73;;;5.60;1.00;;;;;;5095038;28;20247;-68
2021/03/17 08:11:41;;;;;;;11.40;9.30;;;5.80;99.90;;;;;;5094826;28;20187;-69
2021/03/17 08:14:11;;;;;;;13.30;10.37;;;6.00;99.90;;;;;;5094963;28;20179;-68
2021/03/17 08:16:37;;;;;;;13.65;9.50;;;6.00;60.60;;;;;;5094529;28;20201;-68
2021/03/17 08:19:25;;;;;;;11.13;9.00;;;5.90;99.90;;;;;;5094939;28;20255;-68
2021/03/17 08:21:52;;;;;;;8.50;6.30;;;5.90;99.90;;;;;;5094746;28;20201;-68
2021/03/17 08:24:30;;;;;;;6.55;4.65;;;5.70;1.00;;;;;;5094917;28;20243;-68
2021/03/17 08:26:57;;;;;;;10.20;6.88;;;5.80;1.00;;;;;;5094893;28;20224;-68
2021/03/17 08:29:22;;;;;;;2.85;2.35;;;5.80;99.90;;;;;;5094609;28;20191;-68
2021/03/17 08:31:50;;;;;;;2.43;1.93;;;5.70;99.90;;;;;;5094777;28;20179;-68
2021/03/17 08:34:19;;;;;;;1.70;1.33;;;5.60;99.90;;;;;;5094448;28;20174;-68
2021/03/17 08:36:52;;;;;;;4.10;2.45;;;5.60;99.90;;;;;;5094548;28;20173;-68
2021/03/17 08:39:29;;;;;;;4.82;1.90;;;5.80;99.90;;;;;;5094273;28;20152;-67
2021/03/17 08:42:25;;;;;;;6.72;1.50;;;5.90;99.90;;;;;;5094404;28;20240;-67
2021/03/17 08:44:50;;;;;;;5.22;2.33;;;5.80;99.90;;;;;;5094041;28;20235;-67
2021/03/17 08:47:42;;;;;;;2.20;1.57;;;5.70;99.90;;;;;;5094088;28;20202;-67
2021/03/17 08:50:22;;;;;;;2.60;1.88;;;6.00;99.90;;;;;;5093909;28;20246;-67
2021/03/17 08:52:53;;;;;;;4.07;1.30;;;6.00;99.90;;;;;;5093685;28;20183;-69
2021/03/17 08:55:20;;;;;;;4.80;1.60;;;6.00;99.90;;;;;;5093993;28;20176;-66
2021/03/17 08:58:01;;;;;;;5.72;1.85;;;6.20;99.90;;;;;;5093858;28;20171;-68
2021/03/17 09:00:45;;;;;;;3.85;1.70;;;6.30;99.90;;;;;;5092607;28;20167;-67
2021/03/17 09:03:36;;;;;;;3.65;1.98;;;6.30;96.80;;;;;;5096507;28;20183;-67
2021/03/17 09:06:17;;;;;;;8.70;1.80;;;6.30;58.90;;;;;;5097391;28;20628;-66
2021/03/17 09:08:45;;;;;;;2.20;1.75;;;6.40;99.90;;;;;;5096514;28;20620;-68
2021/03/17 09:11:31;;;;;;;3.38;1.73;;;6.60;84.80;;;;;;5095629;28;20689;-67
2021/03/17 09:13:59;;;;;;;5.10;2.40;;;6.60;38.30;;;;;;5092568;28;20604;-67
2021/03/17 09:16:26;;;;;;;8.43;1.55;;;6.70;46.80;;;;;;5093439;28;20171;-68
2021/03/17 09:19:14;;;;;;;2.47;1.60;;;6.90;48.50;;;;;;5093670;28;20197;-68
2021/03/17 09:21:45;;;;;;;2.42;1.77;;;6.90;1.00;;;;;;5094006;28;20189;-69
2021/03/17 09:24:30;;;;;;;8.18;2.58;;;6.50;1.00;;;;;;5093438;28;20624;-68
2021/03/17 09:27:06;;;;;;;1.90;1.50;;;6.60;1.00;;;;;;5093207;28;20636;-68
2021/03/17 09:29:36;;;;;;;4.15;1.92;;;6.60;1.60;;;;;;5093689;28;20187;-68
2021/03/17 09:32:03;;;;;;;6.57;2.10;;;6.80;1.00;;;;;;5093809;28;20274;-66
2021/03/17 09:34:34;;;;;;;1.70;1.60;;;6.80;1.00;;;;;;5093351;28;20639;-67
2021/03/17 09:37:05;;;;;;;3.80;1.75;;;7.10;1.00;;;;;;5093204;28;20170;-67
2021/03/17 09:39:32;;;;;;;4.15;1.70;;;7.50;1.00;;;;;;5091523;28;20225;-67
2021/03/17 09:41:58;;;;;;;3.20;2.63;;;7.60;1.00;;;;;;5091531;28;20541;-67
2021/03/17 09:44:24;;;;;;;6.07;2.67;;;8.00;1.00;;;;;;5093327;28;20289;-67
2021/03/17 09:46:52;;;;;;;3.20;2.17;;;8.00;1.00;;;;;;5092870;28;20741;-68
2021/03/17 09:49:23;;;;;;;5.82;1.98;;;7.70;1.00;;;;;;5093305;28;20187;-67
2021/03/17 09:51:51;;;;;;;4.47;2.75;;;7.50;1.00;;;;;;5093185;28;20179;-67
2021/03/17 09:54:22;;;;;;;3.33;2.22;;;7.20;1.00;;;;;;5093333;28;20163;-67
2021/03/17 09:56:50;;;;;;;5.18;2.38;;;7.20;1.00;;;;;;5091746;28;20251;-68
2021/03/17 09:59:28;;;;;;;3.50;2.20;;;7.00;1.00;;;;;;5092995;28;20255;-67
2021/03/17 10:01:58;;;;;;;4.20;2.38;;;7.10;1.00;;;;;;5092989;28;20668;-68
2021/03/17 10:04:36;;;;;;;6.47;2.60;;;7.10;1.00;;;;;;5092960;28;20589;-67
2021/03/17 10:07:05;;;;;;;3.58;2.70;;;7.20;1.00;;;;;;5092844;28;20182;-68
2021/03/17 10:09:34;;;;;;;3.97;2.50;;;6.90;1.00;;;;;;5092302;28;20199;-68
2021/03/17 10:12:06;;;;;;;5.95;2.15;;;7.00;1.00;;;;;;5092748;28;20201;-68
2021/03/17 10:14:32;;;;;;;6.35;2.20;;;7.00;1.00;;;;;;5092468;28;20167;-68
2021/03/17 10:17:04;;;;;;;2.17;1.73;;;7.00;1.00;;;;;;5092147;28;20171;-67
2021/03/17 10:19:31;;;;;;;2.75;1.42;;;7.00;1.00;;;;;;5092361;28;20242;-68
2021/03/17 10:21:58;;;;;;;1.95;1.27;;;7.20;1.00;;;;;;5092411;28;20262;-68
2021/03/17 10:24:52;;;;;;;5.13;1.55;;;6.90;1.00;;;;;;5092462;28;20167;-68
2021/03/17 10:27:20;;;;;;;4.50;1.33;;;6.50;1.00;;;;;;5097082;28;20564;-68
2021/03/17 10:29:49;;;;;;;6.07;1.70;;;6.40;1.00;;;;;;5096708;28;20213;-68
2021/03/17 10:32:23;;;;;;;3.70;1.45;;;6.60;1.00;;;;;;5096432;28;20543;-68
2021/03/17 10:34:49;;;;;;;4.28;1.90;;;6.40;1.00;;;;;;5096530;28;20250;-68
2021/03/17 10:37:20;;;;;;;7.88;2.10;;;6.30;1.00;;;;;;5096773;28;20246;-68
2021/03/17 10:39:51;;;;;;;4.25;1.50;;;6.70;1.00;;;;;;5097322;28;20151;-68
2021/03/17 10:42:25;;;;;;;3.35;1.65;;;6.60;1.00;;;;;;5096784;28;20611;-68
2021/03/17 10:45:06;;;;;;;5.20;1.52;;;7.00;1.00;;;;;;5096569;28;20158;-68
2021/03/17 10:47:32;;;;;;;3.92;1.95;;;7.00;1.00;;;;;;5096588;28;20213;-68
2021/03/17 10:49:57;;;;;;;4.95;1.80;;;7.00;1.00;;;;;;5096704;28;20629;-68
2021/03/17 10:52:34;;;;;;;1.93;1.60;;;7.10;1.00;;;;;;5096571;28;20225;-68
2021/03/17 10:55:12;;;;;;;5.30;2.35;;;7.30;1.00;;;;;;5095191;28;20650;-68
2021/03/17 10:57:38;;;;;;;2.40;2.00;;;7.40;1.00;;;;;;5096405;28;20685;-67
2021/03/17 11:00:33;;;;;;;8.75;2.50;;;7.50;1.00;;;;;;5096208;28;20179;-67
2021/03/17 11:02:59;;;;;;;2.50;2.28;;;7.40;1.00;;;;;;5079121;28;20670;-68
2021/03/17 11:05:27;;;;;;;6.80;2.13;;;7.50;1.00;;;;;;5096270;28;20205;-68
2021/03/17 11:08:02;;;;;;;5.35;2.35;;;6.90;1.00;;;;;;5095764;28;20547;-68
2021/03/17 11:10:47;;;;;;;3.67;2.60;;;7.20;1.00;;;;;;5095785;28;20163;-68
2021/03/17 11:13:12;;;;;;;2.53;1.80;;;7.10;1.00;;;;;;5095837;28;20183;-68
2021/03/17 11:15:43;;;;;;;4.70;2.87;;;6.90;1.00;;;;;;5095847;28;20229;-69
2021/03/17 11:18:10;;;;;;;2.55;1.70;;;7.00;1.00;;;;;;5095848;28;20599;-68
2021/03/17 11:20:40;;;;;;;3.83;1.23;;;7.10;1.00;;;;;;5095827;28;20206;-68
2021/03/17 11:23:17;;;;;;;4.75;1.98;;;7.00;1.00;;;;;;5095599;28;20610;-68
2021/03/17 11:25:43;;;;;;;1.85;1.50;;;7.10;1.00;;;;;;5095613;28;20163;-70
2021/03/17 11:28:16;;;;;;;3.22;1.20;;;7.10;1.00;;;;;;5097075;28;20199;-69
2021/03/17 11:30:46;;;;;;;1.80;1.50;;;7.30;1.00;;;;;;5095726;28;20156;-69
2021/03/17 11:33:13;;;;;;;2.38;1.67;;;7.50;1.00;;;;;;5095399;28;20656;-68
2021/03/17 11:35:43;;;;;;;3.83;1.80;;;7.00;1.00;;;;;;5095306;28;20197;-68
2021/03/17 11:38:10;;;;;;;6.63;1.02;;;7.60;1.00;;;;;;5094183;28;20609;-68
2021/03/17 11:40:37;;;;;;;3.70;1.23;;;7.60;1.00;;;;;;5095297;28;20174;-68
2021/03/17 11:43:09;;;;;;;3.28;1.45;;;8.00;1.00;;;;;;5094109;28;20195;-68
2021/03/17 11:45:35;;;;;;;2.75;1.05;;;8.40;1.00;;;;;;5095218;28;20236;-68
2021/03/17 11:48:00;;;;;;;2.83;1.30;;;8.50;1.00;;;;;;5095049;28;20202;-68
2021/03/17 11:50:26;;;;;;;2.13;1.20;;;9.10;1.00;;;;;;5095037;28;20164;-66
2021/03/17 11:52:52;;;;;;;5.00;1.23;;;9.40;1.00;;;;;;5095242;28;20183;-67
2021/03/17 11:55:19;;;;;;;2.57;1.20;;;9.40;1.00;;;;;;5095535;28;20199;-69
2021/03/17 11:57:45;;;;;;;7.57;2.22;;;9.40;1.00;;;;;;5095451;28;20661;-69
2021/03/17 12:00:11;;;;;;;3.03;1.37;;;9.40;1.00;;;;;;5095391;28;20197;-68
2021/03/17 12:02:37;;;;;;;7.18;1.58;;;9.50;1.00;;;;;;5095312;28;20210;-68
2021/03/17 12:05:03;;;;;;;2.63;1.00;;;9.90;1.00;;;;;;5095044;28;20574;-68
2021/03/17 12:07:29;;;;;;;2.50;1.20;;;10.50;1.00;;;;;;5094536;28;20195;-69
2021/03/17 12:09:55;;;;;;;4.03;1.47;;;10.40;1.00;;;;;;5094795;28;20453;-68
2021/03/17 12:12:21;;;;;;;2.00;1.25;;;10.30;1.00;;;;;;5095086;28;20278;-68
2021/03/17 12:14:46;;;;;;;3.47;1.73;;;10.30;1.00;;;;;;5094693;28;20251;-68
2021/03/17 12:17:12;;;;;;;2.83;1.90;;;10.00;1.00;;;;;;5093943;28;20580;-67
2021/03/17 12:19:38;;;;;;;4.10;1.37;;;9.60;1.00;;;;;;5094248;28;20173;-68
2021/03/17 12:22:04;;;;;;;3.92;1.90;;;9.50;1.00;;;;;;5094638;28;20557;-68
2021/03/17 12:24:29;;;;;;;2.77;1.63;;;9.30;1.00;;;;;;5093909;28;20186;-67
2021/03/17 12:26:55;;;;;;;4.50;1.67;;;8.60;1.00;;;;;;5094196;28;20187;-68
2021/03/17 12:29:20;;;;;;;2.80;1.50;;;9.00;1.00;;;;;;5094482;28;20245;-68
2021/03/17 12:31:46;;;;;;;5.47;1.50;;;8.50;1.00;;;;;;5094269;28;20191;-68
2021/03/17 12:34:12;;;;;;;3.50;1.30;;;7.50;1.00;;;;;;5094392;28;20171;-68
2021/03/17 12:36:37;;;;;;;2.30;1.03;;;7.70;1.00;;;;;;5094194;28;20232;-67
2021/03/17 12:39:06;;;;;;;9.73;1.40;;;8.20;1.00;;;;;;5093955;28;20171;-68
2021/03/17 12:41:32;;;;;;;2.95;1.30;;;8.30;1.00;;;;;;5094269;28;20175;-68
2021/03/17 12:43:57;;;;;;;3.90;1.27;;;8.10;1.00;;;;;;5094169;28;20209;-68
2021/03/17 12:46:23;;;;;;;2.03;1.20;;;8.30;1.00;;;;;;5094496;28;20938;-68
2021/03/17 12:48:49;;;;;;;3.10;1.37;;;8.20;1.00;;;;;;5093691;28;20238;-68
2021/03/17 12:51:14;;;;;;;5.13;1.40;;;8.40;1.00;;;;;;5094113;28;20505;-68
2021/03/17 12:53:40;;;;;;;4.83;1.20;;;8.50;1.00;;;;;;5094259;28;20539;-68
2021/03/17 12:56:06;;;;;;;3.23;1.37;;;8.60;1.00;;;;;;5094208;28;20214;-66
2021/03/17 12:58:33;;;;;;;1.93;1.10;;;9.10;1.00;;;;;;5094097;28;20251;-68
2021/03/17 13:00:59;;;;;;;4.22;1.38;;;8.50;1.00;;;;;;5094482;28;20431;-68
2021/03/17 13:03:25;;;;;;;7.13;1.95;;;8.60;1.00;;;;;;5094098;28;20191;-68
2021/03/17 13:05:50;;;;;;;3.53;1.00;;;8.50;1.00;;;;;;5093819;28;20178;-68